Terminal Aerodrome Forecast
Issued by NWS

Home | Current Version | Previous Version | Text Only | Print | Product List | Glossary On
Versions: 1 2 3 4 5 6 7 8 9 10 11 12 13 14 15 16 17 18 19 20 21 22 23 24 25
724
FTUS41 KPBZ 031133
TAFFKL
TAF
KFKL 031133Z 0312/0412 35004KT 2SM BR OVC002
     FM031330 35004KT P6SM OVC005
     FM031430 36003KT P6SM OVC015
     FM031600 30004KT P6SM BKN050
      AMD LTD TO CLD VIS AND WIND=

USA.gov is the U.S. government's official web portal to all federal, state and local government web resources and services.